sensor_id;sensor_type;location;lat;lon;timestamp;pressure;altitude;pressure_sealevel;temperature;humidity
69535;BME280;56754;51.568;5.048;2023-04-22T00:01:24;100761.47;;;12.91;66.90
69535;BME280;56754;51.568;5.048;2023-04-22T00:03:50;100759.13;;;12.90;66.99
69535;BME280;56754;51.568;5.048;2023-04-22T00:06:16;100761.00;;;12.89;67.09
69535;BME280;56754;51.568;5.048;2023-04-22T00:08:42;100765.13;;;12.87;66.83
69535;BME280;56754;51.568;5.048;2023-04-22T00:11:07;100758.97;;;12.86;66.96
69535;BME280;56754;51.568;5.048;2023-04-22T00:13:33;100755.84;;;12.84;66.96
69535;BME280;56754;51.568;5.048;2023-04-22T00:15:58;100750.47;;;12.84;67.10
69535;BME280;56754;51.568;5.048;2023-04-22T00:18:23;100755.38;;;12.82;67.10
69535;BME280;56754;51.568;5.048;2023-04-22T00:20:49;100752.69;;;12.82;67.16
69535;BME280;56754;51.568;5.048;2023-04-22T00:23:14;100757.56;;;12.80;66.93
69535;BME280;56754;51.568;5.048;2023-04-22T00:25:39;100758.69;;;12.79;67.16
69535;BME280;56754;51.568;5.048;2023-04-22T00:28:05;100770.56;;;12.78;67.10
69535;BME280;56754;51.568;5.048;2023-04-22T00:30:30;100769.75;;;12.78;66.87
69535;BME280;56754;51.568;5.048;2023-04-22T00:32:56;100767.41;;;12.76;66.83
69535;BME280;56754;51.568;5.048;2023-04-22T00:35:21;100766.94;;;12.74;67.01
69535;BME280;56754;51.568;5.048;2023-04-22T00:37:46;100771.84;;;12.72;67.05
69535;BME280;56754;51.568;5.048;2023-04-22T00:40:12;100779.91;;;12.72;67.02
69535;BME280;56754;51.568;5.048;2023-04-22T00:42:37;100781.78;;;12.71;67.38
69535;BME280;56754;51.568;5.048;2023-04-22T00:45:04;100779.44;;;12.70;67.20
69535;BME280;56754;51.568;5.048;2023-04-22T00:47:34;100780.53;;;12.69;66.90
69535;BME280;56754;51.568;5.048;2023-04-22T00:50:00;100781.63;;;12.68;67.02
69535;BME280;56754;51.568;5.048;2023-04-22T00:52:26;100781.97;;;12.66;67.00
69535;BME280;56754;51.568;5.048;2023-04-22T00:54:51;100775.81;;;12.66;66.86
69535;BME280;56754;51.568;5.048;2023-04-22T00:57:17;100772.69;;;12.64;66.78
69535;BME280;56754;51.568;5.048;2023-04-22T00:59:43;100771.09;;;12.63;66.90
69535;BME280;56754;51.568;5.048;2023-04-22T01:02:09;100773.31;;;12.61;66.93
69535;BME280;56754;51.568;5.048;2023-04-22T01:04:34;100784.06;;;12.61;67.04
69535;BME280;56754;51.568;5.048;2023-04-22T01:07:00;100779.78;;;12.60;66.75
69535;BME280;56754;51.568;5.048;2023-04-22T01:09:26;100777.44;;;12.58;66.79
69535;BME280;56754;51.568;5.048;2023-04-22T01:11:51;100778.56;;;12.57;66.76
69535;BME280;56754;51.568;5.048;2023-04-22T01:14:16;100780.75;;;12.55;66.78
69535;BME280;56754;51.568;5.048;2023-04-22T01:16:42;100783.75;;;12.53;67.10
69535;BME280;56754;51.568;5.048;2023-04-22T01:19:07;100783.75;;;12.53;67.01
69535;BME280;56754;51.568;5.048;2023-04-22T01:21:34;100779.50;;;12.52;67.00
69535;BME280;56754;51.568;5.048;2023-04-22T01:24:00;100786.00;;;12.51;66.85
69535;BME280;56754;51.568;5.048;2023-04-22T01:26:26;100784.41;;;12.50;66.83
69535;BME280;56754;51.568;5.048;2023-04-22T01:28:51;100776.34;;;12.50;66.76
69535;BME280;56754;51.568;5.048;2023-04-22T01:31:17;100772.41;;;12.48;66.77
69535;BME280;56754;51.568;5.048;2023-04-22T01:33:43;100774.31;;;12.47;66.90
69535;BME280;56754;51.568;5.048;2023-04-22T01:36:09;100772.41;;;12.48;66.84
69535;BME280;56754;51.568;5.048;2023-04-22T01:38:35;100775.09;;;12.48;67.02
69535;BME280;56754;51.568;5.048;2023-04-22T01:41:00;100771.66;;;12.47;66.90
69535;BME280;56754;51.568;5.048;2023-04-22T01:43:26;100768.19;;;12.47;66.99
69535;BME280;56754;51.568;5.048;2023-04-22T01:45:52;100765.84;;;12.45;66.37
69535;BME280;56754;51.568;5.048;2023-04-22T01:48:17;100765.03;;;12.45;66.61
69535;BME280;56754;51.568;5.048;2023-04-22T01:50:43;100758.88;;;12.44;67.02
69535;BME280;56754;51.568;5.048;2023-04-22T01:53:09;100758.88;;;12.44;66.88
69535;BME280;56754;51.568;5.048;2023-04-22T01:55:35;100769.59;;;12.44;66.74
69535;BME280;56754;51.568;5.048;2023-04-22T01:58:00;100763.00;;;12.42;67.01
69535;BME280;56754;51.568;5.048;2023-04-22T02:00:26;100766.47;;;12.42;66.82
69535;BME280;56754;51.568;5.048;2023-04-22T02:02:51;100762.22;;;12.41;67.10
69535;BME280;56754;51.568;5.048;2023-04-22T02:05:17;100764.91;;;12.41;67.02
69535;BME280;56754;51.568;5.048;2023-04-22T02:07:42;100774.06;;;12.40;66.78
69535;BME280;56754;51.568;5.048;2023-04-22T02:10:08;100765.22;;;12.40;66.70
69535;BME280;56754;51.568;5.048;2023-04-22T02:12:33;100762.56;;;12.40;66.90
69535;BME280;56754;51.568;5.048;2023-04-22T02:14:58;100759.06;;;12.39;66.75
69535;BME280;56754;51.568;5.048;2023-04-22T02:17:24;100759.06;;;12.39;66.80
69535;BME280;56754;51.568;5.048;2023-04-22T02:19:49;100746.78;;;12.38;66.68
69535;BME280;56754;51.568;5.048;2023-04-22T02:22:14;100743.31;;;12.38;66.89
69535;BME280;56754;51.568;5.048;2023-04-22T02:24:40;100742.19;;;12.39;66.91
69535;BME280;56754;51.568;5.048;2023-04-22T02:27:05;100736.06;;;12.38;66.76
69535;BME280;56754;51.568;5.048;2023-04-22T02:29:30;100739.50;;;12.39;66.90
69535;BME280;56754;51.568;5.048;2023-04-22T02:31:56;100741.41;;;12.38;66.76
69535;BME280;56754;51.568;5.048;2023-04-22T02:34:21;100738.72;;;12.38;66.77
69535;BME280;56754;51.568;5.048;2023-04-22T02:36:46;100734.50;;;12.37;66.61
69535;BME280;56754;51.568;5.048;2023-04-22T02:39:12;100737.97;;;12.38;66.84
69535;BME280;56754;51.568;5.048;2023-04-22T02:41:37;100739.06;;;12.37;66.92
69535;BME280;56754;51.568;5.048;2023-04-22T02:44:02;100734.81;;;12.36;66.71
69535;BME280;56754;51.568;5.048;2023-04-22T02:46:27;100732.91;;;12.36;67.02
69535;BME280;56754;51.568;5.048;2023-04-22T02:48:53;100736.69;;;12.35;66.77
69535;BME280;56754;51.568;5.048;2023-04-22T02:51:18;100730.09;;;12.33;66.94
69535;BME280;56754;51.568;5.048;2023-04-22T02:53:43;100737.81;;;12.34;67.06
69535;BME280;56754;51.568;5.048;2023-04-22T02:56:09;100737.81;;;12.34;66.97
69535;BME280;56754;51.568;5.048;2023-04-22T02:58:34;100732.78;;;12.33;67.05
69535;BME280;56754;51.568;5.048;2023-04-22T03:00:59;100734.66;;;12.32;66.81
69535;BME280;56754;51.568;5.048;2023-04-22T03:03:25;100728.53;;;12.32;66.99
69535;BME280;56754;51.568;5.048;2023-04-22T03:05:50;100725.06;;;12.31;67.02
69535;BME280;56754;51.568;5.048;2023-04-22T03:08:15;100724.72;;;12.33;67.02
69535;BME280;56754;51.568;5.048;2023-04-22T03:10:40;100725.06;;;12.31;66.81
69535;BME280;56754;51.568;5.048;2023-04-22T03:13:06;100728.53;;;12.32;66.94
69535;BME280;56754;51.568;5.048;2023-04-22T03:15:31;100715.13;;;12.32;66.94
69535;BME280;56754;51.568;5.048;2023-04-22T03:17:56;100713.56;;;12.31;66.77
69535;BME280;56754;51.568;5.048;2023-04-22T03:20:21;100711.66;;;12.31;66.79
69535;BME280;56754;51.568;5.048;2023-04-22T03:22:47;100711.66;;;12.31;66.96
69535;BME280;56754;51.568;5.048;2023-04-22T03:25:12;100710.88;;;12.31;67.03
69535;BME280;56754;51.568;5.048;2023-04-22T03:27:37;100708.50;;;12.29;67.02
69535;BME280;56754;51.568;5.048;2023-04-22T03:30:04;100702.03;;;12.30;66.48
69535;BME280;56754;51.568;5.048;2023-04-22T03:32:29;100697.78;;;12.29;66.56
69535;BME280;56754;51.568;5.048;2023-04-22T03:34:54;100697.78;;;12.29;66.88
69535;BME280;56754;51.568;5.048;2023-04-22T03:37:20;100690.88;;;12.28;66.71
69535;BME280;56754;51.568;5.048;2023-04-22T03:39:45;100685.50;;;12.28;66.87
69535;BME280;56754;51.568;5.048;2023-04-22T03:42:12;100684.41;;;12.29;66.92
69535;BME280;56754;51.568;5.048;2023-04-22T03:44:38;100675.25;;;12.30;67.07
69535;BME280;56754;51.568;5.048;2023-04-22T03:47:03;100669.44;;;12.28;66.67
69535;BME280;56754;51.568;5.048;2023-04-22T03:49:28;100664.84;;;12.28;66.90
69535;BME280;56754;51.568;5.048;2023-04-22T03:51:54;100664.06;;;12.28;66.90
69535;BME280;56754;51.568;5.048;2023-04-22T03:54:19;100657.13;;;12.27;66.69
69535;BME280;56754;51.568;5.048;2023-04-22T03:56:45;100665.97;;;12.27;66.83
69535;BME280;56754;51.568;5.048;2023-04-22T03:59:10;100657.13;;;12.27;66.71
69535;BME280;56754;51.568;5.048;2023-04-22T04:01:35;100651.78;;;12.27;66.94
69535;BME280;56754;51.568;5.048;2023-04-22T04:04:00;100651.78;;;12.27;66.89
69535;BME280;56754;51.568;5.048;2023-04-22T04:06:26;100656.34;;;12.26;66.51
69535;BME280;56754;51.568;5.048;2023-04-22T04:08:51;100657.13;;;12.27;66.78
69535;BME280;56754;51.568;5.048;2023-04-22T04:11:16;100664.38;;;12.26;66.71
69535;BME280;56754;51.568;5.048;2023-04-22T04:13:42;100666.28;;;12.26;66.85
69535;BME280;56754;51.568;5.048;2023-04-22T04:16:07;100662.81;;;12.25;66.65
69535;BME280;56754;51.568;5.048;2023-04-22T04:18:32;100651.31;;;12.25;66.70
69535;BME280;56754;51.568;5.048;2023-04-22T04:20:57;100647.53;;;12.26;66.68
69535;BME280;56754;51.568;5.048;2023-04-22T04:23:23;100651.00;;;12.26;66.84
69535;BME280;56754;51.568;5.048;2023-04-22T04:25:48;100644.06;;;12.25;66.77
69535;BME280;56754;51.568;5.048;2023-04-22T04:28:14;100642.16;;;12.26;66.88
69535;BME280;56754;51.568;5.048;2023-04-22T04:30:39;100638.72;;;12.25;66.58
69535;BME280;56754;51.568;5.048;2023-04-22T04:33:04;100644.84;;;12.26;66.81
69535;BME280;56754;51.568;5.048;2023-04-22T04:35:29;100648.66;;;12.25;66.76
69535;BME280;56754;51.568;5.048;2023-04-22T04:37:55;100644.84;;;12.26;66.57
69535;BME280;56754;51.568;5.048;2023-04-22T04:40:20;100641.38;;;12.25;66.58
69535;BME280;56754;51.568;5.048;2023-04-22T04:42:45;100637.13;;;12.24;66.81
69535;BME280;56754;51.568;5.048;2023-04-22T04:45:11;100639.03;;;12.24;66.96
69535;BME280;56754;51.568;5.048;2023-04-22T04:47:36;100639.50;;;12.26;66.80
69535;BME280;56754;51.568;5.048;2023-04-22T04:50:01;100644.84;;;12.26;66.70
69535;BME280;56754;51.568;5.048;2023-04-22T04:52:26;100647.84;;;12.24;66.76
69535;BME280;56754;51.568;5.048;2023-04-22T04:54:52;100645.63;;;12.26;66.76
69535;BME280;56754;51.568;5.048;2023-04-22T04:57:17;100655.56;;;12.26;66.64
69535;BME280;56754;51.568;5.048;2023-04-22T04:59:42;100650.22;;;12.26;66.48
69535;BME280;56754;51.568;5.048;2023-04-22T05:02:07;100646.75;;;12.25;66.76
69535;BME280;56754;51.568;5.048;2023-04-22T05:04:33;100644.06;;;12.25;66.43
69535;BME280;56754;51.568;5.048;2023-04-22T05:06:58;100645.97;;;12.25;66.54
69535;BME280;56754;51.568;5.048;2023-04-22T05:09:23;100636.03;;;12.25;66.53
69535;BME280;56754;51.568;5.048;2023-04-22T05:11:48;100637.13;;;12.24;66.59
69535;BME280;56754;51.568;5.048;2023-04-22T05:14:14;100636.81;;;12.26;66.63
69535;BME280;56754;51.568;5.048;2023-04-22T05:16:39;100651.78;;;12.27;66.69
69535;BME280;56754;51.568;5.048;2023-04-22T05:19:04;100653.66;;;12.26;66.43
69535;BME280;56754;51.568;5.048;2023-04-22T05:21:30;100653.66;;;12.26;66.61
69535;BME280;56754;51.568;5.048;2023-04-22T05:23:55;100653.34;;;12.28;66.65
69535;BME280;56754;51.568;5.048;2023-04-22T05:26:21;100656.03;;;12.28;66.52
69535;BME280;56754;51.568;5.048;2023-04-22T05:28:46;100656.81;;;12.28;66.53
69535;BME280;56754;51.568;5.048;2023-04-22T05:31:11;100651.13;;;12.30;66.78
69535;BME280;56754;51.568;5.048;2023-04-22T05:33:36;100651.59;;;12.32;66.68
69535;BME280;56754;51.568;5.048;2023-04-22T05:36:02;100650.81;;;12.32;66.63
69535;BME280;56754;51.568;5.048;2023-04-22T05:38:27;100639.75;;;12.33;66.94
69535;BME280;56754;51.568;5.048;2023-04-22T05:40:52;100649.38;;;12.34;66.62
69535;BME280;56754;51.568;5.048;2023-04-22T05:43:19;100651.72;;;12.36;66.27
69535;BME280;56754;51.568;5.048;2023-04-22T05:45:44;100644.47;;;12.36;66.78
69535;BME280;56754;51.568;5.048;2023-04-22T05:48:09;100643.38;;;12.37;66.53
69535;BME280;56754;51.568;5.048;2023-04-22T05:50:35;100640.34;;;12.39;66.43
69535;BME280;56754;51.568;5.048;2023-04-22T05:53:00;100640.03;;;12.40;66.52
69535;BME280;56754;51.568;5.048;2023-04-22T05:55:25;100642.06;;;12.43;66.61
69535;BME280;56754;51.568;5.048;2023-04-22T05:57:51;100640.63;;;12.46;66.57
69535;BME280;56754;51.568;5.048;2023-04-22T06:00:16;100643.75;;;12.48;66.53
69535;BME280;56754;51.568;5.048;2023-04-22T06:02:42;100644.22;;;12.50;66.43
69535;BME280;56754;51.568;5.048;2023-04-22T06:05:07;100639.78;;;12.54;66.52
69535;BME280;56754;51.568;5.048;2023-04-22T06:07:33;100632.19;;;12.56;66.29
69535;BME280;56754;51.568;5.048;2023-04-22T06:09:58;100632.31;;;12.60;66.37
69535;BME280;56754;51.568;5.048;2023-04-22T06:12:23;100635.47;;;12.62;66.25
69535;BME280;56754;51.568;5.048;2023-04-22T06:14:49;100634.03;;;12.64;66.07
69535;BME280;56754;51.568;5.048;2023-04-22T06:17:14;100628.00;;;12.67;66.09
69535;BME280;56754;51.568;5.048;2023-04-22T06:19:39;100631.16;;;12.69;65.64
69535;BME280;56754;51.568;5.048;2023-04-22T06:22:04;100632.41;;;12.72;65.76
69535;BME280;56754;51.568;5.048;2023-04-22T06:24:30;100626.69;;;12.73;65.66
69535;BME280;56754;51.568;5.048;2023-04-22T06:26:55;100629.84;;;12.75;65.43
69535;BME280;56754;51.568;5.048;2023-04-22T06:29:20;100623.47;;;12.80;65.67
69535;BME280;56754;51.568;5.048;2023-04-22T06:31:46;100631.22;;;12.82;65.29
69535;BME280;56754;51.568;5.048;2023-04-22T06:34:11;100623.75;;;12.87;65.39
69535;BME280;56754;51.568;5.048;2023-04-22T06:36:36;100622.31;;;12.90;65.38
69535;BME280;56754;51.568;5.048;2023-04-22T06:39:02;100614.38;;;12.93;65.15
69535;BME280;56754;51.568;5.048;2023-04-22T06:41:29;100611.03;;;12.96;65.22
69535;BME280;56754;51.568;5.048;2023-04-22T06:43:55;100601.19;;;13.01;65.15
69535;BME280;56754;51.568;5.048;2023-04-22T06:46:20;100604.81;;;13.05;65.11
69535;BME280;56754;51.568;5.048;2023-04-22T06:48:45;100609.16;;;13.09;65.20
69535;BME280;56754;51.568;5.048;2023-04-22T06:51:10;100603.13;;;13.12;64.89
69535;BME280;56754;51.568;5.048;2023-04-22T06:53:36;100601.03;;;13.18;64.96
69535;BME280;56754;51.568;5.048;2023-04-22T06:56:01;100603.84;;;13.21;64.91
69535;BME280;56754;51.568;5.048;2023-04-22T06:58:30;100609.66;;;13.24;64.75
69535;BME280;56754;51.568;5.048;2023-04-22T07:00:55;100617.44;;;13.25;64.46
69535;BME280;56754;51.568;5.048;2023-04-22T07:03:20;100617.06;;;13.27;64.59
69535;BME280;56754;51.568;5.048;2023-04-22T07:05:46;100612.16;;;13.29;64.75
69535;BME280;56754;51.568;5.048;2023-04-22T07:08:11;100621.47;;;13.31;64.75
69535;BME280;56754;51.568;5.048;2023-04-22T07:10:36;100617.66;;;13.32;64.63
69535;BME280;56754;51.568;5.048;2023-04-22T07:13:02;100611.63;;;13.35;64.64
69535;BME280;56754;51.568;5.048;2023-04-22T07:15:29;100617.44;;;13.37;64.51
69535;BME280;56754;51.568;5.048;2023-04-22T07:17:54;100616.78;;;13.40;64.44
69535;BME280;56754;51.568;5.048;2023-04-22T07:20:20;100613.75;;;13.42;64.48
69535;BME280;56754;51.568;5.048;2023-04-22T07:22:45;100617.66;;;13.45;64.42
69535;BME280;56754;51.568;5.048;2023-04-22T07:25:10;100620.81;;;13.47;64.53
69535;BME280;56754;51.568;5.048;2023-04-22T07:27:36;100614.00;;;13.49;64.39
69535;BME280;56754;51.568;5.048;2023-04-22T07:30:02;100603.69;;;13.51;64.29
69535;BME280;56754;51.568;5.048;2023-04-22T07:32:28;100608.75;;;13.53;64.29
69535;BME280;56754;51.568;5.048;2023-04-22T07:34:53;100611.88;;;13.55;64.16
69535;BME280;56754;51.568;5.048;2023-04-22T07:37:20;100630.34;;;13.56;64.26
69535;BME280;56754;51.568;5.048;2023-04-22T07:39:45;100626.97;;;13.59;64.21
69535;BME280;56754;51.568;5.048;2023-04-22T07:42:11;100629.34;;;13.61;64.18
69535;BME280;56754;51.568;5.048;2023-04-22T07:44:36;100619.03;;;13.63;63.88
69535;BME280;56754;51.568;5.048;2023-04-22T07:47:01;100589.94;;;13.65;64.16
69535;BME280;56754;51.568;5.048;2023-04-22T07:49:27;100588.50;;;13.68;64.04
69535;BME280;56754;51.568;5.048;2023-04-22T07:51:52;100589.75;;;13.70;64.13
69535;BME280;56754;51.568;5.048;2023-04-22T07:54:17;100587.47;;;13.72;64.02
69535;BME280;56754;51.568;5.048;2023-04-22T07:56:42;100582.56;;;13.74;64.06
69535;BME280;56754;51.568;5.048;2023-04-22T07:59:08;100582.25;;;13.76;64.18
69535;BME280;56754;51.568;5.048;2023-04-22T08:01:33;100578.88;;;13.79;64.11
69535;BME280;56754;51.568;5.048;2023-04-22T08:03:58;100576.19;;;13.79;64.15
69535;BME280;56754;51.568;5.048;2023-04-22T08:06:24;100585.50;;;13.81;64.16
69535;BME280;56754;51.568;5.048;2023-04-22T08:08:49;100588.94;;;13.82;64.18
69535;BME280;56754;51.568;5.048;2023-04-22T08:11:14;100582.44;;;13.83;64.22
69535;BME280;56754;51.568;5.048;2023-04-22T08:13:39;100584.81;;;13.84;64.28
69535;BME280;56754;51.568;5.048;2023-04-22T08:16:05;100577.19;;;13.86;64.32
69535;BME280;56754;51.568;5.048;2023-04-22T08:18:30;100578.78;;;13.87;64.36
69535;BME280;56754;51.568;5.048;2023-04-22T08:20:56;100575.72;;;13.89;64.52
69535;BME280;56754;51.568;5.048;2023-04-22T08:23:21;100564.66;;;13.91;64.35
69535;BME280;56754;51.568;5.048;2023-04-22T08:25:49;100563.53;;;13.92;64.51
69535;BME280;56754;51.568;5.048;2023-04-22T08:28:15;100565.88;;;13.93;64.51
69535;BME280;56754;51.568;5.048;2023-04-22T08:30:40;100560.16;;;13.95;64.65
69535;BME280;56754;51.568;5.048;2023-04-22T08:33:05;100561.72;;;13.96;64.63
69535;BME280;56754;51.568;5.048;2023-04-22T08:35:33;100553.34;;;13.97;64.68
69535;BME280;56754;51.568;5.048;2023-04-22T08:37:59;100546.84;;;13.98;64.59
69535;BME280;56754;51.568;5.048;2023-04-22T08:40:24;100542.69;;;14.01;64.62
69535;BME280;56754;51.568;5.048;2023-04-22T08:42:50;100532.41;;;14.03;64.73
69535;BME280;56754;51.568;5.048;2023-04-22T08:45:15;100536.63;;;14.04;64.43
69535;BME280;56754;51.568;5.048;2023-04-22T08:47:41;100527.44;;;14.05;64.25
69535;BME280;56754;51.568;5.048;2023-04-22T08:50:07;100525.66;;;14.09;64.28
69535;BME280;56754;51.568;5.048;2023-04-22T08:52:32;100506.50;;;14.10;64.24
69535;BME280;56754;51.568;5.048;2023-04-22T08:54:58;100511.53;;;14.12;64.47
69535;BME280;56754;51.568;5.048;2023-04-22T08:57:24;100503.94;;;14.14;64.38
69535;BME280;56754;51.568;5.048;2023-04-22T08:59:50;100507.81;;;14.17;64.22
69535;BME280;56754;51.568;5.048;2023-04-22T09:02:19;100494.81;;;14.19;64.37
69535;BME280;56754;51.568;5.048;2023-04-22T09:04:50;100501.78;;;14.20;64.14
69535;BME280;56754;51.568;5.048;2023-04-22T09:07:36;100509.94;;;14.23;64.17
69535;BME280;56754;51.568;5.048;2023-04-22T09:10:03;100515.31;;;14.23;64.10
69535;BME280;56754;51.568;5.048;2023-04-22T09:12:28;100505.00;;;14.25;64.06
69535;BME280;56754;51.568;5.048;2023-04-22T09:14:55;100513.50;;;14.27;64.17
69535;BME280;56754;51.568;5.048;2023-04-22T09:17:41;100515.88;;;14.29;64.11
69535;BME280;56754;51.568;5.048;2023-04-22T09:20:07;100516.63;;;14.29;64.20
69535;BME280;56754;51.568;5.048;2023-04-22T09:22:40;100523.56;;;14.30;64.11
69535;BME280;56754;51.568;5.048;2023-04-22T09:25:19;100515.97;;;14.32;63.95
69535;BME280;56754;51.568;5.048;2023-04-22T09:27:49;100522.13;;;14.33;64.03
69535;BME280;56754;51.568;5.048;2023-04-22T09:30:17;100525.25;;;14.35;64.01
69535;BME280;56754;51.568;5.048;2023-04-22T09:32:50;100519.50;;;14.37;64.06
69535;BME280;56754;51.568;5.048;2023-04-22T09:35:22;100518.41;;;14.38;63.87
69535;BME280;56754;51.568;5.048;2023-04-22T09:37:53;100516.13;;;14.40;63.83
69535;BME280;56754;51.568;5.048;2023-04-22T09:40:18;100529.25;;;14.41;64.03
69535;BME280;56754;51.568;5.048;2023-04-22T09:42:48;100534.28;;;14.43;64.10
69535;BME280;56754;51.568;5.048;2023-04-22T09:45:24;100538.56;;;14.44;63.85
69535;BME280;56754;51.568;5.048;2023-04-22T09:47:50;100545.47;;;14.45;63.96
69535;BME280;56754;51.568;5.048;2023-04-22T09:50:19;100537.88;;;14.47;63.56
69535;BME280;56754;51.568;5.048;2023-04-22T09:52:44;100542.13;;;14.48;63.85
69535;BME280;56754;51.568;5.048;2023-04-22T09:55:17;100531.03;;;14.49;63.91
69535;BME280;56754;51.568;5.048;2023-04-22T09:57:43;100529.13;;;14.50;63.58
69535;BME280;56754;51.568;5.048;2023-04-22T10:00:11;100538.75;;;14.51;63.56
69535;BME280;56754;51.568;5.048;2023-04-22T10:02:37;100540.31;;;14.52;63.66
69535;BME280;56754;51.568;5.048;2023-04-22T10:05:03;100532.69;;;14.54;63.95
69535;BME280;56754;51.568;5.048;2023-04-22T10:07:29;100523.50;;;14.55;64.02
69535;BME280;56754;51.568;5.048;2023-04-22T10:09:54;100522.41;;;14.56;63.82
69535;BME280;56754;51.568;5.048;2023-04-22T10:12:19;100538.19;;;14.57;63.85
69535;BME280;56754;51.568;5.048;2023-04-22T10:14:45;100543.22;;;14.59;63.60
69535;BME280;56754;51.568;5.048;2023-04-22T10:17:11;100544.78;;;14.60;63.38
69535;BME280;56754;51.568;5.048;2023-04-22T10:19:38;100543.66;;;14.61;63.22
69535;BME280;56754;51.568;5.048;2023-04-22T10:22:04;100529.88;;;14.63;63.21
69535;BME280;56754;51.568;5.048;2023-04-22T10:24:34;100527.63;;;14.65;63.17
69535;BME280;56754;51.568;5.048;2023-04-22T10:27:02;100524.16;;;14.64;63.07
69535;BME280;56754;51.568;5.048;2023-04-22T10:29:36;100523.03;;;14.65;62.95
69535;BME280;56754;51.568;5.048;2023-04-22T10:32:05;100515.41;;;14.67;63.04
69535;BME280;56754;51.568;5.048;2023-04-22T10:34:31;100512.72;;;14.67;63.11
69535;BME280;56754;51.568;5.048;2023-04-22T10:36:59;100520.78;;;14.67;62.99
69535;BME280;56754;51.568;5.048;2023-04-22T10:39:26;100510.78;;;14.68;63.00
69535;BME280;56754;51.568;5.048;2023-04-22T10:44:22;100510.03;;;14.67;63.12
69535;BME280;56754;51.568;5.048;2023-04-22T10:49:18;100507.31;;;14.67;63.36
69535;BME280;56754;51.568;5.048;2023-04-22T10:57:12;100544.63;;;14.69;63.18
69535;BME280;56754;51.568;5.048;2023-04-22T11:02:46;100561.91;;;14.68;63.93
69535;BME280;56754;51.568;5.048;2023-04-22T11:05:25;100573.78;;;14.67;63.19
69535;BME280;56754;51.568;5.048;2023-04-22T11:07:59;100565.38;;;14.68;64.21
69535;BME280;56754;51.568;5.048;2023-04-22T11:10:31;100569.97;;;14.68;63.43
69535;BME280;56754;51.568;5.048;2023-04-22T11:12:57;100558.44;;;14.67;63.35
69535;BME280;56754;51.568;5.048;2023-04-22T11:15:22;100558.44;;;14.67;63.31
69535;BME280;56754;51.568;5.048;2023-04-22T11:17:52;100551.47;;;14.66;63.29
69535;BME280;56754;51.568;5.048;2023-04-22T11:20:17;100554.16;;;14.66;63.39
69535;BME280;56754;51.568;5.048;2023-04-22T11:22:48;100555.75;;;14.67;63.49
69535;BME280;56754;51.568;5.048;2023-04-22T11:25:15;100554.16;;;14.66;63.53
69535;BME280;56754;51.568;5.048;2023-04-22T11:27:41;100559.22;;;14.68;64.66
69535;BME280;56754;51.568;5.048;2023-04-22T11:32:38;100565.38;;;14.68;64.32
69535;BME280;56754;51.568;5.048;2023-04-22T11:35:06;100572.66;;;14.68;65.31
69535;BME280;56754;51.568;5.048;2023-04-22T11:37:47;100576.91;;;14.69;65.03
69535;BME280;56754;51.568;5.048;2023-04-22T11:40:17;100572.66;;;14.68;64.16
69535;BME280;56754;51.568;5.048;2023-04-22T11:42:43;100583.84;;;14.70;66.25
69535;BME280;56754;51.568;5.048;2023-04-22T11:45:09;100584.19;;;14.68;65.16
69535;BME280;56754;51.568;5.048;2023-04-22T11:47:35;100576.13;;;14.68;64.07
69535;BME280;56754;51.568;5.048;2023-04-22T11:50:04;100573.00;;;14.66;64.06
69535;BME280;56754;51.568;5.048;2023-04-22T11:52:55;100567.63;;;14.66;63.86
69535;BME280;56754;51.568;5.048;2023-04-22T12:00:21;100549.91;;;14.65;63.76
69535;BME280;56754;51.568;5.048;2023-04-22T12:03:00;100549.91;;;14.65;63.81
69535;BME280;56754;51.568;5.048;2023-04-22T12:08:03;100554.53;;;14.65;63.86
69535;BME280;56754;51.568;5.048;2023-04-22T12:10:30;100551.84;;;14.65;64.00
69535;BME280;56754;51.568;5.048;2023-04-22T12:12:55;100547.22;;;14.65;63.83
69535;BME280;56754;51.568;5.048;2023-04-22T12:15:20;100548.78;;;14.66;64.10
69535;BME280;56754;51.568;5.048;2023-04-22T12:17:48;100556.84;;;14.66;64.23
69535;BME280;56754;51.568;5.048;2023-04-22T12:20:14;100555.75;;;14.67;64.15
69535;BME280;56754;51.568;5.048;2023-04-22T12:22:39;100557.63;;;14.67;64.12
69535;BME280;56754;51.568;5.048;2023-04-22T12:25:05;100552.69;;;14.69;64.60
69535;BME280;56754;51.568;5.048;2023-04-22T12:27:30;100560.78;;;14.69;64.27
69535;BME280;56754;51.568;5.048;2023-04-22T12:29:56;100567.63;;;14.66;64.69
69535;BME280;56754;51.568;5.048;2023-04-22T12:32:24;100569.97;;;14.68;64.35
69535;BME280;56754;51.568;5.048;2023-04-22T12:34:50;100563.00;;;14.67;64.25
69535;BME280;56754;51.568;5.048;2023-04-22T12:37:16;100566.50;;;14.67;64.05
69535;BME280;56754;51.568;5.048;2023-04-22T12:39:42;100569.97;;;14.68;64.27
69535;BME280;56754;51.568;5.048;2023-04-22T12:42:08;100563.81;;;14.67;64.18
69535;BME280;56754;51.568;5.048;2023-04-22T12:44:34;100569.97;;;14.68;63.93
69535;BME280;56754;51.568;5.048;2023-04-22T12:46:59;100569.63;;;14.69;64.31
69535;BME280;56754;51.568;5.048;2023-04-22T12:49:25;100576.13;;;14.68;64.01
69535;BME280;56754;51.568;5.048;2023-04-22T12:51:50;100575.00;;;14.69;64.23
69535;BME280;56754;51.568;5.048;2023-04-22T12:54:16;100584.19;;;14.68;64.18
69535;BME280;56754;51.568;5.048;2023-04-22T12:56:43;100583.84;;;14.70;64.30
69535;BME280;56754;51.568;5.048;2023-04-22T12:59:09;100587.66;;;14.69;64.19
69535;BME280;56754;51.568;5.048;2023-04-22T13:01:34;100581.50;;;14.68;64.29
69535;BME280;56754;51.568;5.048;2023-04-22T13:03:59;100586.88;;;14.68;64.35
69535;BME280;56754;51.568;5.048;2023-04-22T13:06:24;100583.44;;;14.68;64.36
69535;BME280;56754;51.568;5.048;2023-04-22T13:08:51;100589.59;;;14.68;64.37